Flight Track Log - Related Links

Times and Time Zones

All times are in EDT time to prevent confusion due to time zone crossing. See the AWE1916 flight status page for this flight to view local times or setup timezone preferences in your user account.

Time Position Orientation Groundspeed Altitude Reporting Facility
EDT Latitude Longitude Course Direction KTS MPH feet Rate Location/Type
Sun 07:12:44 PM 42.9333 -78.7500 180° South 152 175 1,700  Level Buffalo TRACON
Sun 07:13:08 PM 42.9167 -78.7667 216° Southwest 154 177 2,500 1,818 Climbing Buffalo TRACON
Sun 07:13:50 PM 42.8836 -78.7933 211° Southwest 178 205 3,700 2,538 Climbing Cleveland Center
Sun 07:14:52 PM 42.8056 -78.7753 170° South 268 308 6,900 3,242 Climbing Cleveland Center
Sun 07:15:00 PM 42.6322 -78.6769 175° South  Level FlightAware Approximate
Sun 07:15:54 PM 42.7211 -78.7575 171° South 290 334 10,400  Level Cleveland Center
Sun 07:16:00 PM 42.5316 -78.6640 174° South  Level FlightAware Approximate
Sun 07:16:55 PM 42.6275 -78.7344 170° South 339 390 12,200  Level Cleveland Center
Sun 07:17:00 PM 42.4311 -78.6500 180° South  Level FlightAware Approximate
Sun 07:17:57 PM 42.5267 -78.7136 171° South 362 417 14,700  Level Cleveland Center
Sun 07:18:59 PM 42.4214 -78.6892 170° South 383 441 17,100 2,244 Climbing Cleveland Center
Sun 07:20:00 PM 42.3142 -78.6658 171° South 389 448 19,300 1,951 Climbing Cleveland Center
Sun 07:21:02 PM 42.2050 -78.6369 169° South 397 457 21,100 1,839 Climbing Cleveland Center
Sun 07:22:04 PM 42.0869 -78.5744 159° South 422 486 23,100 1,756 Climbing Cleveland Center
Sun 07:23:05 PM 41.9750 -78.5183 160° South 425 489 24,700 1,561 Climbing Cleveland Center
Sun 07:24:07 PM 41.8622 -78.4611 159° South 432 497 26,300 1,597 Climbing Cleveland Center
Sun 07:25:09 PM 41.7497 -78.4058 160° South 432 497 28,000 1,610 Climbing Cleveland Center
Sun 07:26:10 PM 41.6178 -78.3397 159° South 427 491 29,600 1,366 Climbing Cleveland Center
Sun 07:27:12 PM 41.5056 -78.2839 160° South 428 493 30,800 1,171 Climbing Cleveland Center
Sun 07:28:13 PM 41.3928 -78.2456 166° South 424 488 32,000 585 Climbing Cleveland Center
Sun 07:29:15 PM 41.2783 -78.2786 192° South 411 473 32,000  Level Cleveland Center
Sun 07:30:16 PM 41.1725 -78.3278 199° South 403 464 32,000  Level Cleveland Center
Sun 07:31:18 PM 41.0933 -78.4267 223° Southwest 392 451 32,000  Level Cleveland Center
Sun 07:32:19 PM 41.0164 -78.5306 226° Southwest 393 452 32,000 492 Level Cleveland Center
Sun 07:33:20 PM 40.9372 -78.6272 223° Southwest 393 452 33,000 1,073 Climbing Cleveland Center
Sun 07:34:22 PM 40.8617 -78.7250 224° Southwest 384 442 34,200 1,171 Climbing Cleveland Center
Sun 07:35:23 PM 40.7828 -78.8258 224° Southwest 384 442 35,400 878 Climbing Cleveland Center
Sun 07:36:25 PM 40.6900 -78.9431 224° Southwest 384 442 36,000 293 Climbing Cleveland Center
Sun 07:37:26 PM 40.6111 -79.0433 224° Southwest 394 453 36,000  Level Cleveland Center
Sun 07:38:27 PM 40.5328 -79.1414 224° Southwest 394 453 36,000  Level Cleveland Center
Sun 07:39:29 PM 40.4544 -79.2408 224° Southwest 394 453 36,000  Level Cleveland Center
Sun 07:40:30 PM 40.3753 -79.3389 223° Southwest 394 453 36,000  Level Cleveland Center
Sun 07:41:31 PM 40.2964 -79.4375 224° Southwest 393 452 36,000  Level Cleveland Center
Sun 07:42:33 PM 40.2175 -79.5347 223° Southwest 391 450 36,000  Level Cleveland Center
Sun 07:43:34 PM 40.1386 -79.6336 224° Southwest 391 450 36,000  Level Cleveland Center
Sun 07:44:35 PM 40.0592 -79.7308 223° Southwest 390 449 36,000  Level Cleveland Center
Sun 07:45:37 PM 39.9786 -79.8286 223° Southwest 391 450 36,000  Level Cleveland Center
Sun 07:46:38 PM 39.8994 -79.9272 224° Southwest 390 449 36,000  Level Cleveland Center
Sun 07:47:39 PM 39.8203 -80.0258 224° Southwest 390 449 36,000  Level Cleveland Center
Sun 07:48:41 PM 39.7242 -80.1417 223° Southwest 391 450 36,000  Level Cleveland Center
Sun 07:49:42 PM 39.6436 -80.2381 223° Southwest 393 452 36,000  Level Cleveland Center
Sun 07:50:43 PM 39.5631 -80.3375 224° Southwest 398 458 36,000  Level Cleveland Center
Sun 07:51:44 PM 39.4806 -80.4356 223° Southwest 400 460 36,000  Level Cleveland Center
Sun 07:52:46 PM 39.4003 -80.5328 223° Southwest 398 458 36,000  Level Cleveland Center
Sun 07:53:21 PM 39.3492 -80.5956 224° Southwest 395 455 36,000  Level Indianapolis Center
Sun 07:54:22 PM 39.2681 -80.6919 223° Southwest 395 455 36,000  Level Indianapolis Center
Sun 07:55:23 PM 39.1875 -80.7889 223° Southwest 395 455 36,000  Level Indianapolis Center
Sun 07:56:25 PM 39.1067 -80.8850 223° Southwest 395 455 36,000  Level Indianapolis Center
Sun 07:57:26 PM 39.0247 -80.9808 222° Southwest 395 455 36,000  Level Indianapolis Center
Sun 07:58:27 PM 38.9439 -81.0772 223° Southwest 395 455 36,000  Level Indianapolis Center
Sun 07:59:29 PM 38.8619 -81.1736 223° Southwest 395 455 36,000  Level Indianapolis Center
Sun 08:00:30 PM 38.7797 -81.2686 222° Southwest 396 456 36,000  Level Indianapolis Center
Sun 08:01:31 PM 38.6961 -81.3653 222° Southwest 397 457 36,000  Level Indianapolis Center
Sun 08:02:33 PM 38.6058 -81.4708 222° Southwest 399 459 36,000  Level Indianapolis Center
Sun 08:03:34 PM 38.5244 -81.5658 222° Southwest 403 464 36,000  Level Indianapolis Center
Sun 08:04:35 PM 38.4422 -81.6628 223° Southwest 402 463 36,000  Level Indianapolis Center
Sun 08:05:37 PM 38.3547 -81.7489 218° Southwest 401 461 36,000  Level Indianapolis Center
Sun 08:06:38 PM 38.2239 -81.7964 196° South 403 464 36,000  Level Indianapolis Center
Sun 08:07:40 PM 38.1094 -81.8167 188° South 411 473 36,000  Level Indianapolis Center
Sun 08:08:41 PM 37.9956 -81.8383 189° South 411 473 36,000  Level Indianapolis Center
Sun 08:09:43 PM 37.8797 -81.8592 188° South 414 476 36,000  Level Indianapolis Center
Sun 08:10:44 PM 37.7658 -81.8819 189° South 415 478 36,000 -293 Level Indianapolis Center
Sun 08:11:46 PM 37.6483 -81.9033 188° South 420 483 35,400 -1,220 Descending Indianapolis Center
Sun 08:12:47 PM 37.5314 -81.9256 189° South 422 486 33,500 -1,902 Descending Indianapolis Center
Sun 08:13:49 PM 37.4122 -81.9481 189° South 426 490 31,500 -2,098 Descending Indianapolis Center
Sun 08:14:50 PM 37.2681 -81.9750 188° South 443 510 29,200 -1,220 Descending Indianapolis Center
Sun 08:15:52 PM 37.1458 -81.9972 188° South 443 510 29,000 -98 Descending Indianapolis Center
Sun 08:16:53 PM 37.0233 -82.0206 189° South 443 510 29,000  Level Indianapolis Center
Sun 08:17:55 PM 36.8997 -82.0433 188° South 443 510 29,000 -439 Level Indianapolis Center
Sun 08:18:56 PM 36.7772 -82.0664 189° South 443 510 28,100 -927 Descending Indianapolis Center
Sun 08:19:58 PM 36.6564 -82.0894 189° South 442 509 27,100 -1,000 Descending Indianapolis Center
Sun 08:20:56 PM 36.5333 -82.1114 188° South 442 509 26,100 -1,017 Descending Atlanta Center
Sun 08:21:56 PM 36.4186 -82.1167 182° South 431 496 25,100 -1,000 Descending Atlanta Center
Sun 08:22:56 PM 36.3153 -82.0494 152° Southeast 403 464 24,100 -1,050 Descending Atlanta Center
Sun 08:23:56 PM 36.2119 -81.9825 152° Southeast 408 470 23,000 -1,600 Descending Atlanta Center
Sun 08:24:56 PM 36.1108 -81.9183 153° Southeast 408 470 20,900 -2,200 Descending Atlanta Center
Sun 08:25:56 PM 36.0139 -81.8517 151° Southeast 408 470 18,600 -2,100 Descending Atlanta Center
Sun 08:26:56 PM 35.9189 -81.7925 153° Southeast 403 464 16,700 -2,000 Descending Atlanta Center
Sun 08:27:20 PM 35.8767 -81.7656 153° Southeast 388 447 15,800 -2,108 Descending Atlanta Center
Sun 08:27:33 PM 35.8617 -81.7558 152° Southeast 386 444 15,400 -2,000 Descending Atlanta Center
Sun 08:27:56 PM 35.8258 -81.7286 148° Southeast 391 450 14,600 -2,100 Descending Atlanta Center
Sun 08:28:33 PM 35.7647 -81.6919 154° Southeast 367 422 13,300 -2,000 Descending Atlanta Center
Sun 08:28:56 PM 35.7350 -81.6722 152° Southeast 380 437 12,600 -1,574 Descending Atlanta Center
Sun 08:29:34 PM 35.6781 -81.6331 151° Southeast 350 403 11,700 -1,100 Descending Atlanta Center
Sun 08:29:56 PM 35.6506 -81.6186 157° South 360 414 11,500 -590 Descending Atlanta Center
Sun 08:30:35 PM 35.6039 -81.5792 145° Southeast 301 346 11,100 -500 Descending Atlanta Center
Sun 08:30:56 PM 35.5847 -81.5542 133° Southeast 330 380 11,000 -358 Descending Atlanta Center
Sun 08:31:42 PM 35.5561 -81.4886 118° Southeast 308 354 10,700 -800 Descending Atlanta Center
Sun 08:31:56 PM 35.5514 -81.4581 101° East 296 341 10,200 -1,636 Descending Atlanta Center
Sun 08:32:37 PM 35.5417 -81.3894 100° East 314 361 9,200 -1,100 Descending Atlanta Center
Sun 08:32:56 PM 35.5367 -81.3564 101° East 296 341 9,100 -800 Descending Atlanta Center
Sun 08:33:37 PM 35.5269 -81.2981 102° East 267 307 8,400 -1,000 Descending Atlanta Center
Sun 08:33:56 PM 35.5200 -81.2678 106° East 284 327 8,100 -1,082 Descending Atlanta Center
Sun 08:34:38 PM 35.5125 -81.2067 99° East 251 289 7,300 -1,100 Descending Atlanta Center
Sun 08:34:56 PM 35.5056 -81.1814 109° East 271 312 7,000 -1,574 Descending Atlanta Center
Sun 08:35:39 PM 35.4814 -81.1314 121° Southeast 238 274 5,700 -1,500 Descending Atlanta Center
Sun 08:35:56 PM 35.4750 -81.1189 122° Southeast 246 283 5,500 -1,013 Descending Atlanta Center
Sun 08:36:56 PM 35.4419 -81.0511 121° Southeast 231 266 4,400 -811 Descending Atlanta Center
Sun 08:37:47 PM 35.4136 -81.0039 126° Southeast 189 217 4,000 -536 Descending Atlanta Center
Sun 08:38:48 PM 35.3653 -80.9825 160° South 173 199 3,400 -738 Descending Atlanta Center
Sun 08:39:49 PM 35.3172 -80.9792 177° South 172 198 2,500 -828 Descending Atlanta Center
Sun 08:40:44 PM 35.2794 -80.9731 172° South 141 162 1,800 -678 Descending Atlanta Center
Sun 08:41:44 PM 35.2461 -80.9717 178° South 117 135 1,200 -600 Descending Atlanta Center
Sun 08:43:00 PM 35.1112 -81.0500 180° South  Level FlightAware Approximate

Login

Don't have an account? Register now (free) for customized features, flight alerts, and more!